createdAt,value
2022-08-03T00:00:10.900Z,0.00
2022-08-03T00:01:10.136Z,0.00
2022-08-03T00:02:10.136Z,0.00
2022-08-03T00:03:10.239Z,0.00
2022-08-03T00:04:10.121Z,0.00
2022-08-03T00:05:10.333Z,0.00
2022-08-03T00:06:10.089Z,0.00
2022-08-03T00:07:10.090Z,0.00
2022-08-03T00:08:10.099Z,0.00
2022-08-03T00:09:10.118Z,0.00
2022-08-03T00:10:10.089Z,0.00
2022-08-03T00:11:10.075Z,0.00
2022-08-03T00:12:10.138Z,0.00
2022-08-03T00:13:10.058Z,0.00
2022-08-03T00:14:10.075Z,0.00
2022-08-03T00:15:15.116Z,0.00
2022-08-03T00:16:10.047Z,0.00
2022-08-03T00:17:10.038Z,0.00
2022-08-03T00:18:10.025Z,0.00
2022-08-03T00:19:10.012Z,0.00
2022-08-03T00:20:10.006Z,0.00
2022-08-03T00:21:10.020Z,0.00
2022-08-03T00:22:10.181Z,0.00
2022-08-03T00:23:10.014Z,0.00
2022-08-03T00:24:10.036Z,0.00
2022-08-03T00:25:09.999Z,0.00
2022-08-03T00:26:10.018Z,0.00
2022-08-03T00:27:10.022Z,0.00
2022-08-03T00:28:09.984Z,0.00
2022-08-03T00:29:09.988Z,0.00
2022-08-03T00:30:10.014Z,0.00
2022-08-03T00:31:13.517Z,0.00
2022-08-03T00:32:10.982Z,0.00
2022-08-03T00:33:09.952Z,0.00
2022-08-03T00:34:09.939Z,0.00
2022-08-03T00:35:16.348Z,0.00
2022-08-03T00:36:09.949Z,0.00
2022-08-03T00:37:09.947Z,0.00
2022-08-03T00:38:09.923Z,0.00
2022-08-03T00:39:09.928Z,0.00
2022-08-03T00:40:09.941Z,0.00
2022-08-03T00:41:09.909Z,0.00
2022-08-03T00:42:10.020Z,0.00
2022-08-03T00:43:09.910Z,0.00
2022-08-03T00:44:09.929Z,0.00
2022-08-03T00:45:09.891Z,0.00
2022-08-03T00:46:09.944Z,0.00
2022-08-03T00:47:09.887Z,0.00
2022-08-03T00:48:19.683Z,0.00
2022-08-03T00:49:09.920Z,0.00
2022-08-03T00:50:09.881Z,0.00
2022-08-03T00:51:09.871Z,0.00
2022-08-03T00:52:09.898Z,0.00
2022-08-03T00:53:09.873Z,0.00
2022-08-03T00:54:09.875Z,0.00
2022-08-03T00:55:09.866Z,0.00
2022-08-03T00:56:10.043Z,0.00
2022-08-03T00:57:09.834Z,0.00
2022-08-03T00:58:09.828Z,0.00
2022-08-03T00:59:09.823Z,0.00
2022-08-03T01:00:09.823Z,0.00
2022-08-03T01:01:09.849Z,0.00
2022-08-03T01:02:09.878Z,0.00
2022-08-03T01:03:09.789Z,0.00
2022-08-03T01:04:09.821Z,0.00
2022-08-03T01:05:09.798Z,0.00
2022-08-03T01:06:09.788Z,0.00
2022-08-03T01:07:10.827Z,0.00
2022-08-03T01:08:09.779Z,0.00
2022-08-03T01:09:09.800Z,0.00
2022-08-03T01:10:09.763Z,0.00
2022-08-03T01:11:09.969Z,0.00
2022-08-03T01:12:09.821Z,0.00
2022-08-03T01:14:00.246Z,0.00
2022-08-03T01:14:18.904Z,0.00
2022-08-03T01:15:09.921Z,0.00
2022-08-03T01:16:09.933Z,0.00
2022-08-03T01:17:09.720Z,0.00
2022-08-03T01:18:09.719Z,0.00
2022-08-03T01:19:09.700Z,0.00
2022-08-03T01:20:09.702Z,0.00
2022-08-03T01:21:09.914Z,0.00
2022-08-03T01:22:10.124Z,0.00
2022-08-03T01:23:09.919Z,0.00
2022-08-03T01:24:09.707Z,0.00
2022-08-03T01:25:09.675Z,0.00
2022-08-03T01:26:09.700Z,0.00
2022-08-03T01:27:09.696Z,0.00
2022-08-03T01:28:09.691Z,0.00
2022-08-03T01:29:09.668Z,0.00
2022-08-03T01:30:09.650Z,0.00
2022-08-03T01:31:09.657Z,0.00
2022-08-03T01:33:02.686Z,0.00
2022-08-03T01:33:10.138Z,0.00
2022-08-03T01:34:12.205Z,0.00
2022-08-03T01:35:09.661Z,0.00
2022-08-03T01:36:09.635Z,0.00
2022-08-03T01:37:09.626Z,0.00
2022-08-03T01:38:09.617Z,0.00
2022-08-03T01:39:09.641Z,0.00
2022-08-03T01:40:09.623Z,0.00
2022-08-03T01:41:09.595Z,0.00
2022-08-03T01:42:09.646Z,0.00
2022-08-03T01:43:09.784Z,0.00
2022-08-03T01:44:27.290Z,0.00
2022-08-03T01:45:09.579Z,0.00
2022-08-03T01:46:09.551Z,0.00
2022-08-03T01:47:09.569Z,0.00
2022-08-03T01:48:09.578Z,0.00
2022-08-03T01:49:09.707Z,0.00
2022-08-03T01:50:09.536Z,0.00
2022-08-03T01:51:09.693Z,0.00
2022-08-03T01:52:09.723Z,0.00
2022-08-03T01:53:09.627Z,0.00
2022-08-03T01:54:09.818Z,0.00
2022-08-03T01:55:09.734Z,0.00
2022-08-03T01:56:09.986Z,0.00
2022-08-03T01:57:09.662Z,0.00
2022-08-03T01:58:09.696Z,0.00
2022-08-03T01:59:09.825Z,0.00
2022-08-03T02:00:09.736Z,0.00
2022-08-03T02:01:09.753Z,0.00
2022-08-03T02:02:28.009Z,0.00
2022-08-03T02:03:09.728Z,0.00
2022-08-03T02:04:09.736Z,0.00
2022-08-03T02:05:10.959Z,0.00
2022-08-03T02:07:01.615Z,0.00
2022-08-03T02:07:09.814Z,0.00
2022-08-03T02:08:09.831Z,0.00
2022-08-03T02:09:09.541Z,0.00
2022-08-03T02:10:09.659Z,0.00
2022-08-03T02:11:09.671Z,0.00
2022-08-03T02:12:09.578Z,0.00
2022-08-03T02:13:09.610Z,0.00
2022-08-03T02:14:09.793Z,0.00
2022-08-03T02:15:09.642Z,0.00
2022-08-03T02:16:09.434Z,0.00
2022-08-03T02:17:09.505Z,0.00
2022-08-03T02:18:09.630Z,0.00
2022-08-03T02:19:09.362Z,0.00
2022-08-03T02:20:09.821Z,0.00
2022-08-03T02:21:11.295Z,0.00
2022-08-03T02:22:09.614Z,0.00
2022-08-03T02:23:09.668Z,0.00
2022-08-03T02:24:09.348Z,0.00
2022-08-03T02:25:09.672Z,0.00
2022-08-03T02:26:09.596Z,0.00
2022-08-03T02:27:09.553Z,0.00
2022-08-03T02:28:09.667Z,0.00
2022-08-03T02:29:09.627Z,0.00
2022-08-03T02:30:09.584Z,0.00
2022-08-03T02:31:09.533Z,0.00
2022-08-03T02:32:09.659Z,0.00
2022-08-03T02:33:09.498Z,0.00
2022-08-03T02:34:09.866Z,0.00
2022-08-03T02:35:09.291Z,0.00
2022-08-03T02:36:09.544Z,0.00
2022-08-03T02:37:09.615Z,0.00
2022-08-03T02:38:09.541Z,0.00
2022-08-03T02:39:09.669Z,0.00
2022-08-03T02:40:09.278Z,0.00
2022-08-03T02:41:09.500Z,0.00
2022-08-03T02:42:09.612Z,0.00
2022-08-03T02:43:09.559Z,0.00
2022-08-03T02:44:09.662Z,0.00
2022-08-03T02:45:09.655Z,0.00
2022-08-03T02:46:09.247Z,0.00
2022-08-03T02:47:09.454Z,0.00
2022-08-03T02:48:09.370Z,0.00
2022-08-03T02:49:49.891Z,0.00
2022-08-03T02:50:09.608Z,0.00
2022-08-03T02:51:09.427Z,0.00
2022-08-03T02:52:13.204Z,0.00
2022-08-03T02:53:09.215Z,0.00
2022-08-03T02:54:09.188Z,0.00
2022-08-03T02:55:09.430Z,0.00
2022-08-03T02:56:09.434Z,0.00
2022-08-03T02:57:09.427Z,0.00
2022-08-03T02:58:09.484Z,0.00
2022-08-03T02:59:09.391Z,0.00
2022-08-03T03:00:09.398Z,0.00
2022-08-03T03:01:09.159Z,0.00
2022-08-03T03:02:09.281Z,0.00
2022-08-03T03:03:09.421Z,0.00
2022-08-03T03:04:09.350Z,0.00
2022-08-03T03:05:55.894Z,0.00
2022-08-03T03:06:09.337Z,0.00
2022-08-03T03:07:09.353Z,4.00
2022-08-03T03:08:18.535Z,4.00
2022-08-03T03:09:09.266Z,0.00
2022-08-03T03:10:09.750Z,0.00
2022-08-03T03:11:09.334Z,4.00
2022-08-03T03:12:09.336Z,0.00
2022-08-03T03:13:09.344Z,4.00
2022-08-03T03:14:09.377Z,4.00
2022-08-03T03:15:09.305Z,4.00
2022-08-03T03:16:09.244Z,4.00
2022-08-03T03:17:09.397Z,8.00
2022-08-03T03:18:09.550Z,8.00
2022-08-03T03:19:09.198Z,8.00
2022-08-03T03:20:09.230Z,12.00
2022-08-03T03:21:09.245Z,12.00
2022-08-03T03:22:09.313Z,12.00
2022-08-03T03:23:09.359Z,16.00
2022-08-03T03:24:09.211Z,16.00
2022-08-03T03:25:09.274Z,20.00
2022-08-03T03:26:09.220Z,24.00
2022-08-03T03:27:09.251Z,24.00
2022-08-03T03:28:09.428Z,28.00
2022-08-03T03:29:09.242Z,36.00
2022-08-03T03:30:09.228Z,36.00
2022-08-03T03:31:08.981Z,40.00
2022-08-03T03:32:09.365Z,44.00
2022-08-03T03:33:09.230Z,52.00
2022-08-03T03:34:09.154Z,56.00
2022-08-03T03:35:08.935Z,64.00
2022-08-03T03:36:09.215Z,72.00
2022-08-03T03:37:09.375Z,80.00
2022-08-03T03:38:09.277Z,88.00
2022-08-03T03:39:15.789Z,96.00
2022-08-03T03:40:08.935Z,104.00
2022-08-03T03:41:08.912Z,112.00
2022-08-03T03:42:08.963Z,120.00
2022-08-03T03:43:08.893Z,136.00
2022-08-03T03:44:08.897Z,144.00
2022-08-03T03:45:08.889Z,156.00
2022-08-03T03:46:08.874Z,168.00
2022-08-03T03:47:08.946Z,184.00
2022-08-03T03:48:08.870Z,200.00
2022-08-03T03:49:08.945Z,212.00
2022-08-03T03:50:08.865Z,228.00
2022-08-03T03:51:08.844Z,248.00
2022-08-03T03:52:08.912Z,264.00
2022-08-03T03:53:09.321Z,280.00
2022-08-03T03:54:08.829Z,312.00
2022-08-03T03:55:08.824Z,332.00
2022-08-03T03:56:08.812Z,336.00
2022-08-03T03:57:08.804Z,408.00
2022-08-03T03:58:09.024Z,524.00
2022-08-03T03:59:08.803Z,552.00
2022-08-03T04:00:08.800Z,572.00
2022-08-03T04:01:08.882Z,624.00
2022-08-03T04:02:08.782Z,576.00
2022-08-03T04:03:08.779Z,656.00
2022-08-03T04:04:08.992Z,816.00
2022-08-03T04:05:08.772Z,868.00
2022-08-03T04:06:08.761Z,848.00
2022-08-03T04:07:08.761Z,808.00
2022-08-03T04:08:08.744Z,760.00
2022-08-03T04:09:08.759Z,796.00
2022-08-03T04:10:14.194Z,840.00
2022-08-03T04:11:08.724Z,884.00
2022-08-03T04:12:08.718Z,928.00
2022-08-03T04:13:08.726Z,980.00
2022-08-03T04:14:08.734Z,1040.00
2022-08-03T04:15:08.705Z,1652.00
2022-08-03T04:16:08.701Z,5452.00
2022-08-03T04:17:08.685Z,10092.00
2022-08-03T04:18:08.699Z,12384.00
2022-08-03T04:19:08.884Z,11808.00
2022-08-03T04:20:08.670Z,8304.00
2022-08-03T04:21:08.672Z,4036.00
2022-08-03T04:22:08.665Z,1420.00
2022-08-03T04:23:15.427Z,1420.00
2022-08-03T04:24:08.651Z,1440.00
2022-08-03T04:25:08.657Z,1460.00
2022-08-03T04:26:08.655Z,1492.00
2022-08-03T04:27:08.845Z,1528.00
2022-08-03T04:28:29.435Z,1576.00
2022-08-03T04:29:08.629Z,1632.00
2022-08-03T04:30:08.623Z,1664.00
2022-08-03T04:31:08.616Z,1672.00
2022-08-03T04:32:08.606Z,1692.00
2022-08-03T04:33:08.635Z,1724.00
2022-08-03T04:34:08.587Z,1764.00
2022-08-03T04:35:08.595Z,1800.00
2022-08-03T04:36:08.583Z,1836.00
2022-08-03T04:37:08.587Z,1868.00
2022-08-03T04:38:08.575Z,1908.00
2022-08-03T04:39:08.586Z,1936.00
2022-08-03T04:40:08.556Z,1964.00
2022-08-03T04:41:08.580Z,1996.00
2022-08-03T04:42:09.273Z,2028.00
2022-08-03T04:43:08.563Z,2064.00
2022-08-03T04:44:08.541Z,2088.00
2022-08-03T04:45:08.551Z,2120.00
2022-08-03T04:46:08.532Z,2156.00
2022-08-03T04:47:08.525Z,2180.00
2022-08-03T04:48:08.517Z,2212.00
2022-08-03T04:49:08.608Z,2240.00
2022-08-03T04:50:12.536Z,2272.00
2022-08-03T04:51:08.512Z,2304.00
2022-08-03T04:52:08.495Z,2332.00
2022-08-03T04:53:08.504Z,2356.00
2022-08-03T04:54:08.496Z,2392.00
2022-08-03T04:55:08.485Z,2424.00
2022-08-03T04:56:08.474Z,2448.00
2022-08-03T04:57:08.476Z,2480.00
2022-08-03T04:58:08.467Z,2512.00
2022-08-03T04:59:08.465Z,2540.00
2022-08-03T05:00:08.454Z,2572.00
2022-08-03T05:01:08.452Z,2596.00
2022-08-03T05:02:08.525Z,2628.00
2022-08-03T05:03:20.187Z,2656.00
2022-08-03T05:04:08.646Z,2680.00
2022-08-03T05:05:08.436Z,2712.00
2022-08-03T05:06:10.995Z,2736.00
2022-08-03T05:07:11.667Z,2772.00
2022-08-03T05:08:11.085Z,2796.00
2022-08-03T05:09:08.619Z,2820.00
2022-08-03T05:10:10.174Z,2852.00
2022-08-03T05:11:08.411Z,2876.00
2022-08-03T05:12:08.391Z,2896.00
2022-08-03T05:13:08.595Z,2916.00
2022-08-03T05:14:08.383Z,2944.00
2022-08-03T05:15:08.402Z,2964.00
2022-08-03T05:16:08.650Z,2988.00
2022-08-03T05:17:08.370Z,3012.00
2022-08-03T05:18:13.359Z,3032.00
2022-08-03T05:19:08.359Z,3052.00
2022-08-03T05:20:08.365Z,3068.00
2022-08-03T05:21:08.349Z,3084.00
2022-08-03T05:22:08.344Z,3108.00
2022-08-03T05:23:08.343Z,3124.00
2022-08-03T05:24:08.345Z,3140.00
2022-08-03T05:25:08.786Z,3156.00
2022-08-03T05:26:08.327Z,3168.00
2022-08-03T05:27:08.326Z,3188.00
2022-08-03T05:28:08.326Z,3204.00
2022-08-03T05:29:08.310Z,3228.00
2022-08-03T05:30:30.701Z,3232.00
2022-08-03T05:31:08.306Z,3248.00
2022-08-03T05:32:08.568Z,3280.00
2022-08-03T05:33:08.295Z,3276.00
2022-08-03T05:34:08.302Z,3296.00
2022-08-03T05:36:01.413Z,3308.00
2022-08-03T05:36:08.282Z,3320.00
2022-08-03T05:37:08.283Z,3336.00
2022-08-03T05:38:09.257Z,3352.00
2022-08-03T05:39:08.536Z,3372.00
2022-08-03T05:40:08.294Z,3376.00
2022-08-03T05:41:22.724Z,3388.00
2022-08-03T05:42:08.257Z,3412.00
2022-08-03T05:43:08.275Z,3416.00
2022-08-03T05:44:08.249Z,3436.00
2022-08-03T05:45:08.246Z,3452.00
2022-08-03T05:46:12.845Z,3472.00
2022-08-03T05:47:08.237Z,3472.00
2022-08-03T05:48:08.222Z,3496.00
2022-08-03T05:49:08.279Z,3504.00
2022-08-03T05:50:08.215Z,3512.00
2022-08-03T05:51:08.221Z,3532.00
2022-08-03T05:52:13.085Z,3544.00
2022-08-03T05:53:08.483Z,3592.00
2022-08-03T05:54:08.221Z,3572.00
2022-08-03T05:55:08.197Z,3600.00
2022-08-03T05:56:13.890Z,3608.00
2022-08-03T05:57:08.197Z,3632.00
2022-08-03T05:58:08.190Z,3636.00
2022-08-03T05:59:35.885Z,3652.00
2022-08-03T06:00:08.168Z,3660.00
2022-08-03T06:01:08.302Z,3676.00
2022-08-03T06:02:08.481Z,3700.00
2022-08-03T06:03:08.155Z,3720.00
2022-08-03T06:04:08.159Z,3732.00
2022-08-03T06:05:08.194Z,3832.00
2022-08-03T06:06:08.175Z,3772.00
2022-08-03T06:07:08.336Z,3780.00
2022-08-03T06:08:08.140Z,3816.00
2022-08-03T06:09:08.140Z,3828.00
2022-08-03T06:10:35.403Z,3852.00
2022-08-03T06:11:08.137Z,3880.00
2022-08-03T06:12:11.174Z,3912.00
2022-08-03T06:13:08.119Z,3904.00
2022-08-03T06:14:08.132Z,3924.00
2022-08-03T06:15:08.310Z,3972.00
2022-08-03T06:16:08.139Z,3964.00
2022-08-03T06:17:08.133Z,3980.00
2022-08-03T06:18:08.104Z,4000.00
2022-08-03T06:19:08.082Z,3976.00
2022-08-03T06:20:08.081Z,4024.00
2022-08-03T06:21:14.366Z,4048.00
2022-08-03T06:22:08.092Z,4044.00
2022-08-03T06:23:08.097Z,4060.00
2022-08-03T06:24:08.245Z,4080.00
2022-08-03T06:25:10.232Z,4092.00
2022-08-03T06:26:08.093Z,4112.00
2022-08-03T06:27:08.054Z,4124.00
2022-08-03T06:28:15.029Z,4132.00
2022-08-03T06:29:08.639Z,4144.00
2022-08-03T06:30:08.046Z,4160.00
2022-08-03T06:31:08.035Z,4172.00
2022-08-03T06:32:08.035Z,4188.00
2022-08-03T06:33:08.397Z,4196.00
2022-08-03T06:34:32.099Z,4220.00
2022-08-03T06:35:08.046Z,4220.00
2022-08-03T06:36:08.062Z,4244.00
2022-08-03T06:37:08.045Z,4276.00
2022-08-03T06:38:08.010Z,4276.00
2022-08-03T06:39:08.116Z,4292.00
2022-08-03T06:40:08.030Z,4312.00
2022-08-03T06:41:08.006Z,4328.00
2022-08-03T06:42:08.001Z,4332.00
2022-08-03T06:43:12.201Z,4368.00
2022-08-03T06:44:08.035Z,4380.00
2022-08-03T06:45:08.360Z,4400.00
2022-08-03T06:46:08.177Z,4416.00
2022-08-03T06:47:07.993Z,4432.00
2022-08-03T06:48:08.006Z,4448.00
2022-08-03T06:49:08.265Z,4468.00
2022-08-03T06:50:16.620Z,4472.00
2022-08-03T06:51:07.977Z,4484.00
2022-08-03T06:52:07.955Z,4504.00
2022-08-03T06:53:07.969Z,4520.00
2022-08-03T06:54:07.970Z,4544.00
2022-08-03T06:55:07.950Z,4560.00
2022-08-03T06:56:08.158Z,4564.00
2022-08-03T06:57:07.951Z,4588.00
2022-08-03T06:58:07.938Z,4596.00
2022-08-03T06:59:07.949Z,4564.00
2022-08-03T07:00:12.106Z,4612.00
2022-08-03T07:01:07.996Z,4596.00
2022-08-03T07:02:07.926Z,4560.00
2022-08-03T07:03:07.946Z,4408.00
2022-08-03T07:04:07.942Z,4540.00
2022-08-03T07:05:07.956Z,4532.00
2022-08-03T07:06:07.915Z,4588.00
2022-08-03T07:07:07.935Z,4580.00
2022-08-03T07:08:07.909Z,4548.00
2022-08-03T07:09:08.102Z,4604.00
2022-08-03T07:10:07.892Z,4604.00
2022-08-03T07:11:07.905Z,4672.00
2022-08-03T07:12:07.929Z,4704.00
2022-08-03T07:13:07.916Z,4704.00
2022-08-03T07:14:07.902Z,4676.00
2022-08-03T07:15:07.901Z,4768.00
2022-08-03T07:16:07.945Z,4808.00
2022-08-03T07:17:11.679Z,4824.00
2022-08-03T07:18:07.876Z,4820.00
2022-08-03T07:19:07.862Z,4844.00
2022-08-03T07:20:07.865Z,4860.00
2022-08-03T07:21:07.880Z,4880.00
2022-08-03T07:22:07.879Z,4896.00
2022-08-03T07:23:07.861Z,4908.00
2022-08-03T07:24:07.848Z,4924.00
2022-08-03T07:25:07.845Z,4932.00
2022-08-03T07:26:07.866Z,4944.00
2022-08-03T07:27:07.876Z,4960.00
2022-08-03T07:28:07.849Z,4972.00
2022-08-03T07:29:14.763Z,4980.00
2022-08-03T07:30:07.889Z,4988.00
2022-08-03T07:31:07.893Z,4968.00
2022-08-03T07:32:07.856Z,5000.00
2022-08-03T07:33:07.869Z,5016.00
2022-08-03T07:34:07.847Z,5036.00
2022-08-03T07:35:08.710Z,5036.00
2022-08-03T07:36:07.843Z,5052.00
2022-08-03T07:37:07.820Z,5072.00
2022-08-03T07:38:07.825Z,5092.00
2022-08-03T07:39:15.994Z,5128.00
2022-08-03T07:40:07.857Z,5156.00
2022-08-03T07:41:07.822Z,5176.00
2022-08-03T07:42:07.828Z,5224.00
2022-08-03T07:43:07.812Z,5228.00
2022-08-03T07:44:07.831Z,5248.00
2022-08-03T07:45:07.815Z,5272.00
2022-08-03T07:46:07.829Z,5316.00
2022-08-03T07:47:07.832Z,5316.00
2022-08-03T07:48:12.142Z,5328.00
2022-08-03T07:49:07.903Z,5340.00
2022-08-03T07:50:08.804Z,5344.00
2022-08-03T07:51:07.968Z,5364.00
2022-08-03T07:52:08.043Z,5376.00
2022-08-03T07:53:07.806Z,5384.00
2022-08-03T07:54:07.827Z,5396.00
2022-08-03T07:55:07.823Z,5380.00
2022-08-03T07:56:11.362Z,5400.00
2022-08-03T07:57:08.142Z,5396.00
2022-08-03T07:58:07.954Z,5396.00
2022-08-03T07:59:07.829Z,5436.00
2022-08-03T08:00:07.788Z,5452.00
2022-08-03T08:01:07.828Z,5460.00
2022-08-03T08:02:07.808Z,5464.00
2022-08-03T08:03:07.768Z,5476.00
2022-08-03T08:04:07.807Z,5484.00
2022-08-03T08:05:07.780Z,5496.00
2022-08-03T08:06:07.783Z,5512.00
2022-08-03T08:07:07.773Z,5524.00
2022-08-03T08:08:07.771Z,5548.00
2022-08-03T08:09:07.768Z,5564.00
2022-08-03T08:10:07.770Z,5608.00
2022-08-03T08:11:07.791Z,5680.00
2022-08-03T08:12:14.372Z,5752.00
2022-08-03T08:13:07.775Z,5808.00
2022-08-03T08:14:07.761Z,5816.00
2022-08-03T08:15:07.782Z,5784.00
2022-08-03T08:16:07.750Z,5768.00
2022-08-03T08:17:07.768Z,5760.00
2022-08-03T08:18:07.750Z,5788.00
2022-08-03T08:19:07.792Z,5812.00
2022-08-03T08:20:07.768Z,5832.00
2022-08-03T08:21:08.682Z,5912.00
2022-08-03T08:22:07.757Z,6020.00
2022-08-03T08:23:19.931Z,6104.00
2022-08-03T08:24:13.302Z,6156.00
2022-08-03T08:25:07.780Z,6184.00
2022-08-03T08:26:07.761Z,6212.00
2022-08-03T08:27:07.759Z,6220.00
2022-08-03T08:28:29.875Z,6228.00
2022-08-03T08:29:07.755Z,6224.00
2022-08-03T08:30:11.521Z,6236.00
2022-08-03T08:31:07.749Z,6240.00
2022-08-03T08:32:07.767Z,6240.00
2022-08-03T08:33:08.743Z,6084.00
2022-08-03T08:34:07.746Z,6196.00
2022-08-03T08:35:07.754Z,6160.00
2022-08-03T08:36:12.022Z,6156.00
2022-08-03T08:37:07.762Z,6160.00
2022-08-03T08:38:07.748Z,6160.00
2022-08-03T08:39:07.737Z,6152.00
2022-08-03T08:40:07.770Z,6144.00
2022-08-03T08:41:07.748Z,6160.00
2022-08-03T08:42:07.746Z,6164.00
2022-08-03T08:43:07.783Z,6184.00
2022-08-03T08:44:07.758Z,6176.00
2022-08-03T08:45:07.774Z,6180.00
2022-08-03T08:46:07.790Z,6184.00
2022-08-03T08:47:07.758Z,6204.00
2022-08-03T08:48:08.458Z,6208.00
2022-08-03T08:49:07.825Z,6188.00
2022-08-03T08:50:15.544Z,6172.00
2022-08-03T08:51:07.751Z,6180.00
2022-08-03T08:52:25.338Z,6192.00
2022-08-03T08:53:09.639Z,6196.00
2022-08-03T08:54:07.785Z,6180.00
2022-08-03T08:55:07.775Z,6176.00
2022-08-03T08:56:07.779Z,6204.00
2022-08-03T08:57:26.584Z,6208.00
2022-08-03T08:58:07.783Z,6288.00
2022-08-03T08:59:07.800Z,6312.00
2022-08-03T09:00:07.778Z,6316.00
2022-08-03T09:01:07.857Z,6300.00
2022-08-03T09:02:07.777Z,6288.00
2022-08-03T09:03:07.779Z,6260.00
2022-08-03T09:04:07.876Z,6260.00
2022-08-03T09:05:07.882Z,6252.00
2022-08-03T09:06:07.780Z,6248.00
2022-08-03T09:07:19.713Z,6248.00
2022-08-03T09:08:07.797Z,6036.00
2022-08-03T09:09:07.799Z,6248.00
2022-08-03T09:10:12.770Z,6236.00
2022-08-03T09:11:07.781Z,6264.00
2022-08-03T09:12:35.404Z,6268.00
2022-08-03T09:13:07.812Z,6256.00
2022-08-03T09:14:07.802Z,6256.00
2022-08-03T09:15:17.010Z,6016.00
2022-08-03T09:16:07.814Z,6056.00
2022-08-03T09:17:07.992Z,6240.00
2022-08-03T09:18:07.837Z,6292.00
2022-08-03T09:19:07.805Z,6304.00
2022-08-03T09:20:07.798Z,6292.00
2022-08-03T09:21:29.623Z,6256.00
2022-08-03T09:22:07.814Z,6296.00
2022-08-03T09:23:24.979Z,6296.00
2022-08-03T09:24:16.396Z,6308.00
2022-08-03T09:25:24.272Z,6260.00
2022-08-03T09:26:09.120Z,6280.00
2022-08-03T09:27:07.843Z,6276.00
2022-08-03T09:28:07.824Z,6276.00
2022-08-03T09:29:13.236Z,6264.00
2022-08-03T09:30:07.870Z,6264.00
2022-08-03T09:31:07.798Z,6228.00
2022-08-03T09:32:07.801Z,6224.00
2022-08-03T09:33:08.401Z,6196.00
2022-08-03T09:34:07.832Z,6136.00
2022-08-03T09:35:09.478Z,6084.00
2022-08-03T09:36:08.041Z,6132.00
2022-08-03T09:37:08.030Z,6148.00
2022-08-03T09:38:12.085Z,6204.00
2022-08-03T09:39:07.835Z,6208.00
2022-08-03T09:40:08.335Z,6208.00
2022-08-03T09:41:07.832Z,6204.00
2022-08-03T09:42:07.828Z,6192.00
2022-08-03T09:43:07.829Z,6168.00
2022-08-03T09:44:07.840Z,6176.00
2022-08-03T09:45:07.834Z,6152.00
2022-08-03T09:46:07.874Z,6140.00
2022-08-03T09:47:07.876Z,6124.00
2022-08-03T09:48:08.131Z,6120.00
2022-08-03T09:49:11.566Z,6076.00
2022-08-03T09:50:07.863Z,6100.00
2022-08-03T09:51:13.252Z,6092.00
2022-08-03T09:52:27.385Z,6092.00
2022-08-03T09:53:07.826Z,6084.00
2022-08-03T09:54:16.314Z,6044.00
2022-08-03T09:55:07.876Z,6092.00
2022-08-03T09:56:36.404Z,6068.00
2022-08-03T09:57:08.130Z,6068.00
2022-08-03T09:58:07.836Z,6068.00
2022-08-03T09:59:07.871Z,6088.00
2022-08-03T10:00:08.536Z,6104.00
2022-08-03T10:01:08.019Z,6108.00
2022-08-03T10:02:07.858Z,6064.00
2022-08-03T10:03:07.861Z,6056.00
2022-08-03T10:04:08.130Z,6028.00
2022-08-03T10:05:07.877Z,6028.00
2022-08-03T10:06:07.877Z,6020.00
2022-08-03T10:07:07.906Z,6004.00
2022-08-03T10:08:07.865Z,5984.00
2022-08-03T10:09:07.882Z,5972.00
2022-08-03T10:10:30.838Z,5996.00
2022-08-03T10:11:07.879Z,5996.00
2022-08-03T10:12:07.913Z,6028.00
2022-08-03T10:13:08.082Z,5372.00
2022-08-03T10:14:07.882Z,5000.00
2022-08-03T10:15:07.883Z,5840.00
2022-08-03T10:16:25.197Z,5976.00
2022-08-03T10:17:07.886Z,5964.00
2022-08-03T10:18:07.895Z,5972.00
2022-08-03T10:19:07.921Z,5964.00
2022-08-03T10:20:07.927Z,5984.00
2022-08-03T10:21:08.086Z,5040.00
2022-08-03T10:22:07.926Z,5436.00
2022-08-03T10:23:07.909Z,5792.00
2022-08-03T10:24:07.922Z,5868.00
2022-08-03T10:25:07.909Z,5876.00
2022-08-03T10:26:07.944Z,5892.00
2022-08-03T10:27:07.936Z,5872.00
2022-08-03T10:28:07.916Z,5848.00
2022-08-03T10:29:10.072Z,5800.00
2022-08-03T10:30:07.934Z,5752.00
2022-08-03T10:31:07.920Z,5696.00
2022-08-03T10:32:07.952Z,5660.00
2022-08-03T10:33:15.280Z,5608.00
2022-08-03T10:34:07.995Z,5556.00
2022-08-03T10:35:19.619Z,5504.00
2022-08-03T10:36:07.957Z,5456.00
2022-08-03T10:37:07.963Z,5396.00
2022-08-03T10:38:07.925Z,5328.00
2022-08-03T10:39:15.927Z,5288.00
2022-08-03T10:40:07.936Z,5264.00
2022-08-03T10:41:08.193Z,5216.00
2022-08-03T10:42:14.675Z,5168.00
2022-08-03T10:43:07.961Z,5112.00
2022-08-03T10:44:08.306Z,5052.00
2022-08-03T10:45:07.951Z,5008.00
2022-08-03T10:46:07.950Z,4956.00
2022-08-03T10:47:08.004Z,4908.00
2022-08-03T10:48:09.397Z,4824.00
2022-08-03T10:49:08.053Z,4724.00
2022-08-03T10:50:07.965Z,4604.00
2022-08-03T10:51:07.995Z,4556.00
2022-08-03T10:52:13.661Z,4484.00
2022-08-03T10:53:08.010Z,4464.00
2022-08-03T10:54:12.012Z,4432.00
2022-08-03T10:55:10.758Z,4352.00
2022-08-03T10:56:08.605Z,4336.00
2022-08-03T10:57:14.243Z,4344.00
2022-08-03T11:02:07.997Z,4256.00
2022-08-03T11:03:08.038Z,4220.00
2022-08-03T11:04:11.940Z,4208.00
2022-08-03T11:05:08.011Z,4164.00
2022-08-03T11:06:10.624Z,4132.00
2022-08-03T11:07:08.011Z,4116.00
2022-08-03T11:08:08.068Z,4092.00
2022-08-03T11:09:08.432Z,4064.00
2022-08-03T11:10:10.573Z,4076.00
2022-08-03T11:11:08.043Z,4164.00
2022-08-03T11:12:08.059Z,4332.00
2022-08-03T11:13:08.048Z,4148.00
2022-08-03T11:14:08.050Z,4028.00
2022-08-03T11:15:08.035Z,3984.00
2022-08-03T11:16:12.472Z,3956.00
2022-08-03T11:17:08.045Z,3952.00
2022-08-03T11:18:11.601Z,3940.00
2022-08-03T11:19:08.105Z,3932.00
2022-08-03T11:20:08.078Z,3932.00
2022-08-03T11:21:08.858Z,3932.00
2022-08-03T11:22:08.086Z,3928.00
2022-08-03T11:23:10.662Z,3916.00
2022-08-03T11:24:08.048Z,3904.00
2022-08-03T11:25:08.049Z,3900.00
2022-08-03T11:26:08.051Z,3912.00
2022-08-03T11:27:08.062Z,3904.00
2022-08-03T11:28:08.078Z,3880.00
2022-08-03T11:29:08.067Z,3872.00
2022-08-03T11:30:08.952Z,3868.00
2022-08-03T11:31:08.088Z,3856.00
2022-08-03T11:32:08.063Z,3848.00
2022-08-03T11:33:08.066Z,3840.00
2022-08-03T11:38:08.096Z,3812.00
2022-08-03T11:39:08.088Z,3776.00
2022-08-03T11:40:08.111Z,3784.00
2022-08-03T11:41:08.088Z,3776.00
2022-08-03T11:42:08.357Z,3760.00
2022-08-03T11:43:08.346Z,3764.00
2022-08-03T11:44:08.102Z,3764.00
2022-08-03T11:45:08.107Z,3756.00
2022-08-03T11:46:08.124Z,3736.00
2022-08-03T11:47:08.094Z,3736.00
2022-08-03T11:48:08.100Z,3728.00
2022-08-03T11:49:10.726Z,3688.00
2022-08-03T11:50:08.223Z,3680.00
2022-08-03T11:51:11.161Z,3680.00
2022-08-03T11:52:08.127Z,3680.00
2022-08-03T11:53:08.127Z,3680.00
2022-08-03T11:54:08.122Z,3680.00
2022-08-03T11:55:08.127Z,3672.00
2022-08-03T11:56:12.520Z,3664.00
2022-08-03T11:57:08.141Z,3664.00
2022-08-03T11:59:01.446Z,3640.00
2022-08-03T11:59:20.470Z,3632.00
2022-08-03T12:00:08.176Z,3628.00
2022-08-03T12:01:08.132Z,3624.00
2022-08-03T12:02:08.148Z,3620.00
2022-08-03T12:03:08.273Z,3604.00
2022-08-03T12:04:08.350Z,3612.00
2022-08-03T12:05:08.164Z,3600.00
2022-08-03T12:06:08.136Z,3608.00
2022-08-03T12:07:08.144Z,3604.00
2022-08-03T12:08:08.156Z,3616.00
2022-08-03T12:09:08.176Z,3608.00
2022-08-03T12:10:08.183Z,3576.00
2022-08-03T12:11:08.182Z,3596.00
2022-08-03T12:12:08.171Z,3592.00
2022-08-03T12:14:26.889Z,3592.00
2022-08-03T12:14:50.468Z,3592.00
2022-08-03T12:15:08.182Z,3572.00
2022-08-03T12:16:08.224Z,3576.00
2022-08-03T12:17:08.176Z,3580.00
2022-08-03T12:18:08.170Z,3580.00
2022-08-03T12:19:08.187Z,3572.00
2022-08-03T12:20:08.188Z,3580.00
2022-08-03T12:21:08.184Z,3572.00
2022-08-03T12:22:08.190Z,3540.00
2022-08-03T12:23:08.197Z,3548.00
2022-08-03T12:24:08.314Z,3540.00
2022-08-03T12:25:08.194Z,3532.00
2022-08-03T12:26:08.207Z,3536.00
2022-08-03T12:27:08.253Z,3516.00
2022-08-03T12:28:37.388Z,3532.00
2022-08-03T12:29:08.199Z,3528.00
2022-08-03T12:30:08.415Z,3520.00
2022-08-03T12:31:08.199Z,3516.00
2022-08-03T12:32:08.211Z,3520.00
2022-08-03T12:33:08.207Z,3504.00
2022-08-03T12:34:08.249Z,3408.00